Time;durP1;ratioP1;P1;durP2;ratioP2;P2;SDS_P1;SDS_P2;PMS_P1;PMS_P2;Temp;Humidity;BMP_temperature;BMP_pressure;BME280_temperature;BME280_humidity;BME280_pressure;Samples;Min_cycle;Max_cycle;Signal;HPM_P1;HPM_P2
2022/08/17 00:00:22;;;;;;;12.70;8.40;;;;;;;18.37;100.00;100252.69;107514;1247;63981;-76
2022/08/17 00:03:18;;;;;;;11.30;8.80;;;;;;;18.33;100.00;100254.38;107240;1251;61917;-72
2022/08/17 00:06:10;;;;;;;13.20;8.80;;;;;;;18.32;100.00;100254.30;107395;1247;59238;-74
2022/08/17 00:09:00;;;;;;;9.90;8.00;;;;;;;18.30;100.00;100259.43;107324;1249;63272;-74
2022/08/17 00:11:37;;;;;;;12.70;9.00;;;;;;;18.27;100.00;100262.06;107236;1247;62798;-73
2022/08/17 00:14:18;;;;;;;13.10;8.20;;;;;;;18.25;100.00;100261.77;107327;1248;60649;-72
2022/08/17 00:16:52;;;;;;;16.60;9.00;;;;;;;18.26;100.00;100261.71;107453;1247;74088;-73
2022/08/17 00:19:25;;;;;;;13.20;8.30;;;;;;;18.24;100.00;100258.17;107447;1247;71877;-75
2022/08/17 00:21:59;;;;;;;12.10;8.00;;;;;;;18.24;100.00;100258.33;107713;1250;59460;-74
2022/08/17 00:24:47;;;;;;;14.30;9.10;;;;;;;18.24;100.00;100255.52;107487;1248;73160;-74
2022/08/17 00:27:17;;;;;;;14.20;8.50;;;;;;;18.22;100.00;100253.14;107445;1250;59616;-79
2022/08/17 00:29:46;;;;;;;13.20;9.00;;;;;;;18.22;100.00;100252.61;107258;1248;60325;-78
2022/08/17 00:32:14;;;;;;;16.80;9.30;;;;;;;18.23;100.00;100250.75;107386;1250;64303;-77
2022/08/17 00:35:06;;;;;;;13.70;9.50;;;;;;;18.25;100.00;100248.41;107316;1248;60983;-71
2022/08/17 00:37:35;;;;;;;13.90;8.70;;;;;;;18.26;100.00;100248.82;107439;1247;59092;-77
2022/08/17 00:40:05;;;;;;;18.10;9.40;;;;;;;18.31;100.00;100248.13;107359;1245;73990;-73
2022/08/17 00:42:35;;;;;;;15.20;9.90;;;;;;;18.30;100.00;100254.55;107549;1248;58969;-79
2022/08/17 00:45:06;;;;;;;11.70;8.40;;;;;;;18.31;100.00;100260.65;107362;1251;59156;-73
2022/08/17 00:47:35;;;;;;;13.30;8.20;;;;;;;18.32;100.00;100264.45;107454;1250;62879;-76
2022/08/17 00:50:08;;;;;;;13.60;8.50;;;;;;;18.31;100.00;100263.79;107397;1250;61659;-72
2022/08/17 00:52:46;;;;;;;14.70;9.50;;;;;;;18.33;100.00;100262.20;107566;1247;70549;-71
2022/08/17 00:55:16;;;;;;;12.00;8.70;;;;;;;18.33;100.00;100264.59;107629;1247;63666;-72
2022/08/17 00:57:50;;;;;;;12.30;9.00;;;;;;;18.33;100.00;100263.38;107509;1248;61909;-74
2022/08/17 01:00:39;;;;;;;13.50;8.90;;;;;;;18.32;100.00;100265.77;107203;1248;59901;-73
2022/08/17 01:03:18;;;;;;;11.60;8.80;;;;;;;18.31;100.00;100269.38;109428;1250;74904;-71
2022/08/17 01:05:50;;;;;;;11.00;8.80;;;;;;;18.30;100.00;100268.45;107414;1251;72175;-74
2022/08/17 01:08:24;;;;;;;15.20;9.10;;;;;;;18.32;100.00;100267.73;107183;1251;60339;-73
2022/08/17 01:10:57;;;;;;;12.00;9.30;;;;;;;18.36;100.00;100260.60;107463;1251;62325;-74
2022/08/17 01:13:41;;;;;;;11.80;8.90;;;;;;;18.36;100.00;100256.67;107412;1251;59628;-74
2022/08/17 01:16:20;;;;;;;14.30;9.50;;;;;;;18.37;100.00;100254.67;107488;1250;59158;-70
2022/08/17 01:18:54;;;;;;;12.10;8.90;;;;;;;18.36;100.00;100255.88;107516;1250;63620;-73
2022/08/17 01:21:50;;;;;;;14.50;9.20;;;;;;;18.34;100.00;100265.73;107352;1250;71476;-71
2022/08/17 01:24:19;;;;;;;14.80;11.00;;;;;;;18.31;100.00;100269.05;107469;1247;59633;-71
2022/08/17 01:26:49;;;;;;;13.50;10.00;;;;;;;18.28;100.00;100269.73;107221;1251;63226;-72
2022/08/17 01:29:21;;;;;;;16.60;9.70;;;;;;;18.27;100.00;100266.70;107247;1251;62002;-72
2022/08/17 01:31:57;;;;;;;14.90;10.20;;;;;;;18.26;100.00;100263.92;107562;1248;61580;-72
2022/08/17 01:34:27;;;;;;;14.50;10.50;;;;;;;18.27;100.00;100260.31;107291;1250;64638;-69
2022/08/17 01:37:13;;;;;;;22.30;11.10;;;;;;;18.29;100.00;100260.63;107334;1250;61652;-74
2022/08/17 01:39:54;;;;;;;17.70;10.30;;;;;;;18.30;100.00;100261.62;107729;1247;59895;-74
2022/08/17 01:42:35;;;;;;;13.30;9.90;;;;;;;18.30;100.00;100259.47;107440;1248;62762;-71
2022/08/17 01:45:11;;;;;;;18.90;10.60;;;;;;;18.29;100.00;100262.05;107312;1248;62211;-71
2022/08/17 01:47:40;;;;;;;15.10;10.30;;;;;;;18.27;100.00;100258.23;107260;1251;60119;-72
2022/08/17 01:50:18;;;;;;;19.60;10.80;;;;;;;18.27;100.00;100255.80;107354;1251;63135;-71
2022/08/17 01:52:52;;;;;;;13.80;9.30;;;;;;;18.29;100.00;100259.21;107207;1251;60842;-73
2022/08/17 01:55:30;;;;;;;15.90;10.60;;;;;;;18.28;100.00;100259.55;107441;1250;59658;-76
2022/08/17 01:58:00;;;;;;;21.50;11.80;;;;;;;18.27;100.00;100254.13;107448;1247;63212;-73
2022/08/17 02:00:29;;;;;;;15.80;11.00;;;;;;;18.32;100.00;100245.58;107311;1250;59633;-72
2022/08/17 02:03:21;;;;;;;14.60;10.50;;;;;;;18.33;100.00;100246.77;107491;1251;59046;-72
2022/08/17 02:05:52;;;;;;;18.10;10.40;;;;;;;18.31;100.00;100249.28;107633;1248;62830;-70
2022/08/17 02:08:21;;;;;;;16.40;10.30;;;;;;;18.31;100.00;100243.90;107750;1248;72110;-74
2022/08/17 02:11:15;;;;;;;12.20;9.90;;;;;;;18.29;100.00;100242.86;107188;1251;60373;-77
2022/08/17 02:13:47;;;;;;;16.70;10.90;;;;;;;18.27;100.00;100237.25;107039;1250;73931;-76
2022/08/17 02:16:25;;;;;;;17.90;11.00;;;;;;;18.26;100.00;100235.39;107297;1249;64099;-78
2022/08/17 02:19:12;;;;;;;14.70;10.30;;;;;;;18.25;100.00;100236.85;107453;1247;60824;-80
2022/08/17 02:21:44;;;;;;;16.70;10.90;;;;;;;18.28;100.00;100232.38;107294;1248;64141;-75
2022/08/17 02:24:28;;;;;;;16.80;10.60;;;;;;;18.31;100.00;100232.40;107373;1250;60942;-77
2022/08/17 02:27:16;;;;;;;14.00;10.50;;;;;;;18.31;100.00;100233.29;107376;1248;70510;-75
2022/08/17 02:29:45;;;;;;;15.80;10.50;;;;;;;18.30;100.00;100233.11;107373;1247;63508;-75
2022/08/17 02:32:21;;;;;;;16.10;10.70;;;;;;;18.27;100.00;100233.52;107420;1247;62155;-75
2022/08/17 02:34:57;;;;;;;16.10;10.60;;;;;;;18.25;100.00;100240.95;107238;1247;60773;-73
2022/08/17 02:37:30;;;;;;;15.10;11.20;;;;;;;18.21;100.00;100241.59;107314;1247;74398;-72
2022/08/17 02:39:59;;;;;;;17.00;11.10;;;;;;;18.20;100.00;100245.93;107284;1248;62364;-73
2022/08/17 02:42:39;;;;;;;16.80;11.90;;;;;;;18.19;100.00;100248.88;107238;1247;61056;-72
2022/08/17 02:45:16;;;;;;;14.80;12.00;;;;;;;18.20;100.00;100251.02;107530;1247;63950;-73
2022/08/17 02:47:46;;;;;;;19.80;12.10;;;;;;;18.21;100.00;100256.38;107479;1247;59550;-74
2022/08/17 02:50:19;;;;;;;16.50;11.00;;;;;;;18.24;100.00;100257.15;107572;1247;58819;-75
2022/08/17 02:52:49;;;;;;;;;;;;;;;18.24;100.00;100257.80;107409;1248;74452;-74
2022/08/17 02:55:34;;;;;;;23.00;12.80;;;;;;;18.24;100.00;100260.84;107198;1250;62042;-80
2022/08/17 02:58:03;;;;;;;19.80;12.50;;;;;;;18.25;100.00;100265.70;107342;1250;69668;-74
2022/08/17 03:00:39;;;;;;;18.10;12.90;;;;;;;18.24;100.00;100264.59;107311;1251;63651;-75
2022/08/17 03:03:12;;;;;;;27.10;13.30;;;;;;;18.25;100.00;100270.09;107342;1251;59657;-74
2022/08/17 03:05:41;;;;;;;16.90;12.60;;;;;;;18.28;100.00;100274.28;107355;1247;59530;-73
2022/08/17 03:08:10;;;;;;;16.70;11.20;;;;;;;18.37;100.00;100273.15;107265;1250;63666;-75
2022/08/17 03:10:43;;;;;;;16.50;10.80;;;;;;;18.39;100.00;100279.99;107340;1248;71469;-77
2022/08/17 03:13:13;;;;;;;18.10;10.60;;;;;;;18.38;100.00;100280.76;107564;1248;60769;-74
2022/08/17 03:15:44;;;;;;;15.00;10.80;;;;;;;18.37;100.00;100277.39;107574;1247;72382;-74
2022/08/17 03:18:16;;;;;;;16.60;10.70;;;;;;;18.33;100.00;100279.91;107514;1247;62548;-73
2022/08/17 03:21:00;;;;;;;22.90;12.30;;;;;;;18.30;100.00;100275.20;107441;1250;59689;-75
2022/08/17 03:23:31;;;;;;;17.90;11.80;;;;;;;18.28;100.00;100282.25;107462;1247;74542;-75
2022/08/17 03:26:00;;;;;;;18.70;11.00;;;;;;;18.33;100.00;100285.05;107279;1248;71267;-76
2022/08/17 03:28:29;;;;;;;19.90;11.90;;;;;;;18.36;100.00;100286.12;107639;1247;60561;-78
2022/08/17 03:30:58;;;;;;;16.30;11.40;;;;;;;18.41;100.00;100290.30;107589;1247;62454;-77
2022/08/17 03:33:27;;;;;;;17.20;11.70;;;;;;;18.47;100.00;100290.83;107586;1247;63357;-74
2022/08/17 03:35:56;;;;;;;21.50;12.10;;;;;;;18.51;100.00;100289.13;107608;1248;57933;-76
2022/08/17 03:38:25;;;;;;;22.40;12.80;;;;;;;18.57;100.00;100289.80;107643;1247;64495;-78
2022/08/17 03:40:54;;;;;;;16.90;11.80;;;;;;;18.58;100.00;100288.00;107270;1248;72286;-76
2022/08/17 03:43:30;;;;;;;18.10;12.40;;;;;;;18.62;100.00;100286.90;107570;1247;60421;-76
2022/08/17 03:57:31;;;;;;;22.40;11.20;;;;;;;18.83;100.00;100287.50;107415;1248;61879;-77
2022/08/17 03:59:59;;;;;;;17.60;12.00;;;;;;;18.83;100.00;100292.66;107670;1247;70664;-79
2022/08/17 04:02:41;;;;;;;20.40;12.10;;;;;;;18.91;100.00;100289.34;107356;1247;73760;-78
2022/08/17 04:05:10;;;;;;;17.60;12.30;;;;;;;18.97;100.00;100292.24;107689;1247;62176;-76
2022/08/17 04:07:38;;;;;;;18.70;12.70;;;;;;;19.03;100.00;100295.49;107428;1250;61871;-78
2022/08/17 04:10:07;;;;;;;20.30;12.20;;;;;;;19.10;100.00;100294.39;107586;1247;63416;-77
2022/08/17 04:12:51;;;;;;;17.00;12.00;;;;;;;19.17;100.00;100292.65;107659;1247;60915;-76
2022/08/17 04:15:21;;;;;;;15.50;11.80;;;;;;;19.25;100.00;100288.31;107574;1247;59592;-76
2022/08/17 04:17:51;;;;;;;21.50;12.90;;;;;;;19.33;100.00;100291.13;107773;1247;63629;-78
2022/08/17 04:20:23;;;;;;;17.50;11.90;;;;;;;19.42;100.00;100292.88;107308;1251;58224;-77
2022/08/17 04:23:08;;;;;;;18.90;13.70;;;;;;;19.51;100.00;100290.12;107358;1247;61120;-78
2022/08/17 04:25:42;;;;;;;26.10;21.10;;;;;;;19.59;100.00;100289.17;107204;1247;64647;-78
2022/08/17 04:28:11;;;;;;;57.10;44.90;;;;;;;19.66;100.00;100290.11;107368;1249;72337;-76
2022/08/17 04:30:45;;;;;;;;;;;;;;;19.70;100.00;100286.27;107599;1247;69874;-77
2022/08/17 04:33:24;;;;;;;31.40;26.00;;;;;;;19.71;100.00;100288.52;107390;1250;73718;-77
2022/08/17 04:35:57;;;;;;;33.30;27.40;;;;;;;19.75;100.00;100286.39;107496;1247;63405;-75
2022/08/17 04:38:34;;;;;;;22.00;17.10;;;;;;;19.80;100.00;100289.95;107518;1251;59610;-77
2022/08/17 04:43:57;;;;;;;23.20;13.30;;;;;;;19.95;100.00;100281.77;107485;1251;62036;-76
2022/08/17 04:46:35;;;;;;;19.10;14.30;;;;;;;19.97;100.00;100284.54;107378;1249;70592;-78
2022/08/17 04:49:10;;;;;;;20.20;12.90;;;;;;;19.98;100.00;100289.54;107347;1250;75340;-75
2022/08/17 04:51:45;;;;;;;18.90;13.00;;;;;;;19.99;100.00;100288.16;107442;1249;62430;-76
2022/08/17 04:54:24;;;;;;;16.10;13.50;;;;;;;19.96;100.00;100288.86;107526;1251;61558;-80
2022/08/17 04:56:52;;;;;;;19.50;13.30;;;;;;;19.99;100.00;100290.52;107349;1248;74887;-74
2022/08/17 04:59:22;;;;;;;19.60;13.60;;;;;;;20.05;100.00;100291.17;107414;1250;61465;-75
2022/08/17 05:01:51;;;;;;;18.30;13.70;;;;;;;20.10;100.00;100293.08;107438;1250;60453;-77
2022/08/17 05:04:23;;;;;;;18.10;13.50;;;;;;;20.13;100.00;100296.95;107375;1251;74357;-75
2022/08/17 05:07:03;;;;;;;15.10;11.40;;;;;;;20.15;100.00;100296.38;107182;1250;63716;-75
2022/08/17 05:09:32;;;;;;;14.00;10.30;;;;;;;20.29;100.00;100300.69;107244;1248;60106;-76
2022/08/17 05:12:01;;;;;;;19.60;12.80;;;;;;;20.43;99.62;100301.29;107121;1251;75134;-76
2022/08/17 05:14:30;;;;;;;21.70;13.40;;;;;;;20.52;98.96;100303.83;107200;1248;61161;-74
2022/08/17 05:17:01;;;;;;;19.20;13.00;;;;;;;20.59;98.64;100308.95;107190;1250;60100;-76
2022/08/17 05:19:36;;;;;;;19.20;12.50;;;;;;;20.68;98.11;100310.38;107042;1251;74027;-74
2022/08/17 05:22:05;;;;;;;25.40;13.60;;;;;;;20.77;97.43;100305.52;107098;1249;59552;-76
2022/08/17 05:24:34;;;;;;;18.20;13.40;;;;;;;20.89;96.53;100310.02;107227;1250;58959;-75
2022/08/17 05:27:11;;;;;;;18.30;13.40;;;;;;;20.90;96.96;100312.05;107316;1251;73854;-76
2022/08/17 05:29:46;;;;;;;17.30;12.80;;;;;;;21.06;96.47;100310.98;107394;1251;62098;-74
2022/08/17 05:32:15;;;;;;;17.60;12.00;;;;;;;21.20;96.66;100317.70;107644;1250;59123;-77
2022/08/17 05:35:05;;;;;;;18.00;12.40;;;;;;;21.42;96.13;100312.70;107362;1251;75080;-79
2022/08/17 05:37:34;;;;;;;13.30;9.50;;;;;;;21.57;95.46;100315.12;107422;1250;63785;-77
2022/08/17 05:40:03;;;;;;;16.00;11.50;;;;;;;21.73;92.49;100320.16;107457;1248;61776;-72
2022/08/17 05:42:32;;;;;;;16.70;12.00;;;;;;;21.75;92.12;100317.75;107394;1248;63871;-74
2022/08/17 05:45:01;;;;;;;18.00;12.60;;;;;;;21.81;91.64;100313.17;107581;1249;71200;-76
2022/08/17 05:47:30;;;;;;;14.50;11.60;;;;;;;21.87;91.41;100316.45;107509;1248;71105;-76
2022/08/17 05:50:00;;;;;;;13.90;10.60;;;;;;;21.96;90.47;100318.86;107456;1250;73701;-77
2022/08/17 05:53:17;;;;;;;12.90;10.50;;;;;;;22.06;87.90;100317.03;107587;1247;58338;-76
2022/08/17 05:56:16;;;;;;;19.60;11.20;;;;;;;22.09;87.13;100324.80;107821;1247;61068;-76
2022/08/17 05:59:15;;;;;;;16.40;11.20;;;;;;;22.11;87.93;100323.04;107475;1249;76718;-75
2022/08/17 06:02:04;;;;;;;12.40;10.10;;;;;;;22.30;87.83;100324.36;107461;1250;61367;-77
2022/08/17 06:05:17;;;;;;;14.30;10.60;;;;;;;22.49;85.79;100329.29;107422;1248;70583;-74
2022/08/17 06:08:01;;;;;;;13.20;9.40;;;;;;;22.52;84.05;100322.67;107511;1249;73564;-76
2022/08/17 06:10:48;;;;;;;16.60;10.10;;;;;;;22.61;84.44;100320.61;107525;1250;63444;-74
2022/08/17 06:13:40;;;;;;;11.70;8.60;;;;;;;22.80;84.12;100317.77;107486;1250;62490;-74
2022/08/17 06:16:23;;;;;;;14.30;10.30;;;;;;;23.02;83.65;100315.77;107757;1247;63488;-73
2022/08/17 06:19:22;;;;;;;13.90;9.90;;;;;;;23.25;82.65;100313.48;107689;1248;61668;-76
2022/08/17 06:21:54;;;;;;;14.70;9.40;;;;;;;23.45;82.07;100314.73;107385;1247;69666;-77
2022/08/17 06:24:42;;;;;;;10.20;8.50;;;;;;;23.65;79.33;100314.14;107408;1248;64180;-74
2022/08/17 06:27:17;;;;;;;10.40;8.30;;;;;;;23.51;78.64;100315.27;107541;1250;59521;-75
2022/08/17 06:29:59;;;;;;;10.80;8.60;;;;;;;23.49;78.53;100320.14;107458;1250;58376;-81
2022/08/17 06:32:28;;;;;;;11.20;8.30;;;;;;;23.47;78.60;100317.48;107712;1247;64393;-80
2022/08/17 06:35:00;;;;;;;15.60;9.00;;;;;;;23.49;78.22;100315.23;107498;1250;61492;-74
2022/08/17 06:38:14;;;;;;;19.90;9.10;;;;;;;23.50;79.07;100316.58;107504;1250;70686;-76
2022/08/17 06:41:53;;;;;;;11.20;7.80;;;;;;;23.55;79.08;100316.21;107350;1250;75442;-74
2022/08/17 06:44:37;;;;;;;12.30;8.00;;;;;;;23.59;78.62;100313.76;106977;1256;63038;-73
2022/08/17 06:48:11;;;;;;;10.10;7.30;;;;;;;23.59;77.62;100306.70;107067;1257;60838;-73
2022/08/17 06:50:52;;;;;;;8.20;6.10;;;;;;;23.54;76.50;100306.79;107518;1250;63385;-75
2022/08/17 06:53:28;;;;;;;9.90;5.80;;;;;;;23.54;74.95;100306.79;107670;1247;72225;-74
2022/08/17 06:56:24;;;;;;;12.70;5.60;;;;;;;23.56;75.00;100308.13;107577;1248;70906;-75
2022/08/17 07:04:18;;;;;;;11.10;7.40;;;;;;;23.43;75.93;100315.09;107411;1251;61321;-74
2022/08/17 07:08:00;;;;;;;11.60;6.80;;;;;;;23.47;75.50;100315.76;107565;1248;59550;-73
2022/08/17 07:09:58;;;;;;;11.10;7.90;;;;;;;23.31;75.67;100312.99;107572;1250;63618;-79
2022/08/17 07:12:37;;;;;;;12.60;8.20;;;;;;;23.27;75.75;100308.56;107712;1248;61632;-77
2022/08/17 07:15:24;;;;;;;9.60;7.60;;;;;;;23.37;75.21;100309.02;107515;1250;70585;-71
2022/08/17 07:17:54;;;;;;;9.80;6.90;;;;;;;23.42;74.40;100309.98;107480;1250;62919;-72
2022/08/17 07:20:24;;;;;;;11.80;7.20;;;;;;;23.47;73.31;100315.23;107401;1250;63332;-71
2022/08/17 07:23:33;;;;;;;10.10;6.70;;;;;;;23.34;74.60;100315.59;107834;1247;59592;-80
2022/08/17 07:26:08;;;;;;;11.40;7.50;;;;;;;23.30;75.78;100318.69;107722;1248;74482;-78
2022/08/17 07:28:38;;;;;;;12.10;7.10;;;;;;;23.14;77.11;100315.55;107795;1247;72061;-77
2022/08/17 07:31:08;;;;;;;9.70;6.70;;;;;;;23.03;77.36;100314.87;107759;1247;70144;-80
2022/08/17 07:33:38;;;;;;;8.90;6.60;;;;;;;22.91;77.20;100313.00;107955;1248;73546;-83
2022/08/17 07:36:25;;;;;;;9.10;6.60;;;;;;;22.81;77.98;100317.78;107824;1247;63234;-80
2022/08/17 07:38:57;;;;;;;12.60;7.20;;;;;;;22.82;78.28;100322.71;107741;1250;57904;-79
2022/08/17 07:41:30;;;;;;;14.80;8.20;;;;;;;22.78;79.35;100326.45;107891;1250;63771;-80
2022/08/17 07:44:19;;;;;;;11.20;7.10;;;;;;;22.80;80.18;100327.65;107853;1250;60804;-79
2022/08/17 07:49:45;;;;;;;10.60;6.60;;;;;;;22.73;80.32;100336.35;108067;1250;73945;-83
2022/08/17 07:52:32;;;;;;;12.90;8.80;;;;;;;22.62;80.63;100338.81;108188;1247;63702;-83
2022/08/17 07:55:34;;;;;;;13.70;9.10;;;;;;;22.49;81.33;100336.98;108447;1250;60991;-83
2022/08/17 07:58:02;;;;;;;13.20;8.30;;;;;;;22.50;81.39;100336.66;108657;1247;75126;-81
2022/08/17 08:00:32;;;;;;;13.60;8.80;;;;;;;22.55;81.27;100342.38;108490;1248;62072;-82
2022/08/17 08:03:15;;;;;;;12.20;8.30;;;;;;;22.62;80.92;100342.54;108439;1247;59188;-85
2022/08/17 08:05:55;;;;;;;12.90;8.60;;;;;;;22.58;80.83;100338.45;109121;1247;62386;-83
2022/08/17 08:08:36;;;;;;;12.30;7.70;;;;;;;22.67;80.88;100343.09;108759;1247;62192;-85
2022/08/17 08:11:16;;;;;;;11.20;8.40;;;;;;;22.77;80.24;100341.28;108165;1250;61721;-77
2022/08/17 08:13:45;;;;;;;10.60;7.80;;;;;;;22.98;79.44;100337.84;107502;1249;64250;-79
2022/08/17 08:16:24;;;;;;;12.50;8.00;;;;;;;23.39;77.75;100339.05;107936;1248;72100;-82
2022/08/17 08:19:00;;;;;;;13.70;9.00;;;;;;;23.73;76.51;100336.09;107701;1245;59887;-79
2022/08/17 08:21:50;;;;;;;12.30;8.60;;;;;;;24.04;75.79;100335.80;107861;1248;62452;-81
2022/08/17 08:24:31;;;;;;;11.70;8.50;;;;;;;24.42;73.99;100330.16;107963;1247;57972;-79
2022/08/17 08:27:40;;;;;;;12.00;8.60;;;;;;;24.71;72.44;100324.17;107746;1250;59689;-81
2022/08/17 08:30:18;;;;;;;10.40;8.40;;;;;;;24.82;70.95;100324.83;107565;1250;64189;-72
2022/08/17 08:32:55;;;;;;;11.80;9.20;;;;;;;24.80;70.79;100329.29;107305;1248;72294;-72
2022/08/17 08:39:07;;;;;;;12.70;9.40;;;;;;;24.43;72.28;100330.70;107170;1250;73701;-71
2022/08/17 08:46:05;;;;;;;12.60;9.10;;;;;;;24.96;71.45;100320.36;107398;1248;59455;-72
2022/08/17 08:49:03;;;;;;;11.30;8.90;;;;;;;25.20;70.74;100320.92;107417;1248;65293;-72
2022/08/17 08:51:56;;;;;;;9.80;8.30;;;;;;;25.30;69.21;100331.60;107424;1247;70418;-74
2022/08/17 08:54:47;;;;;;;14.10;10.30;;;;;;;25.27;68.36;100330.52;108185;1247;60984;-79
2022/08/17 08:57:40;;;;;;;11.30;9.40;;;;;;;25.22;68.88;100325.45;107693;1250;63192;-79
2022/08/17 09:00:19;;;;;;;12.00;9.70;;;;;;;25.33;67.54;100328.33;107574;1250;60638;-80
2022/08/17 09:15:27;;;;;;;;;;;;;;;25.46;65.62;100334.52;107471;1250;59163;-74
2022/08/17 09:18:11;;;;;;;12.50;10.50;;;;;;;25.40;66.06;100331.81;107605;1247;62539;-74
2022/08/17 09:21:15;;;;;;;11.20;9.90;;;;;;;25.12;66.23;100336.16;107573;1250;59641;-74
2022/08/17 09:24:25;;;;;;;11.70;9.80;;;;;;;24.75;67.78;100344.10;107669;1247;60518;-74
2022/08/17 09:27:17;;;;;;;11.20;10.00;;;;;;;24.50;68.40;100345.00;107479;1247;75186;-78
2022/08/17 09:29:59;;;;;;;12.90;10.80;;;;;;;24.38;69.47;100347.79;107510;1247;61371;-76
2022/08/17 09:32:41;;;;;;;14.50;10.20;;;;;;;24.29;70.88;100351.66;107435;1247;59165;-79
2022/08/17 09:35:35;;;;;;;13.10;10.40;;;;;;;24.15;71.88;100351.23;107468;1250;63231;-75
2022/08/17 09:38:13;;;;;;;12.00;9.50;;;;;;;24.11;72.18;100350.38;107601;1247;62208;-77
2022/08/17 09:41:15;;;;;;;13.00;9.80;;;;;;;24.14;72.39;100355.46;107368;1251;59574;-74
2022/08/17 09:44:25;;;;;;;12.20;9.90;;;;;;;24.14;73.04;100351.73;107421;1250;63659;-76
2022/08/17 09:47:09;;;;;;;10.70;9.50;;;;;;;24.49;71.70;100354.08;107540;1247;60816;-76
2022/08/17 09:50:07;;;;;;;10.60;9.00;;;;;;;24.84;70.17;100350.61;107374;1250;70525;-73
2022/08/17 09:52:36;;;;;;;12.70;8.60;;;;;;;25.26;69.52;100355.98;107541;1247;63709;-71
2022/08/17 09:55:05;;;;;;;11.70;8.70;;;;;;;25.53;68.57;100356.96;107675;1247;59795;-71
2022/08/17 09:57:47;;;;;;;10.20;8.50;;;;;;;25.54;67.13;100358.54;107404;1247;59628;-73
2022/08/17 10:00:31;;;;;;;9.90;8.30;;;;;;;25.20;67.22;100359.33;107584;1248;74390;-71
2022/08/17 10:03:27;;;;;;;10.60;9.20;;;;;;;25.22;66.23;100356.40;107415;1248;72722;-73
2022/08/17 10:06:01;;;;;;;10.20;9.10;;;;;;;25.28;66.47;100353.50;107499;1247;70157;-73
2022/08/17 10:09:12;;;;;;;10.10;8.50;;;;;;;25.54;65.88;100347.99;107483;1247;73618;-72
2022/08/17 10:12:15;;;;;;;10.10;9.00;;;;;;;25.79;64.86;100344.49;107297;1248;60919;-72
2022/08/17 10:15:09;;;;;;;13.10;8.80;;;;;;;25.75;64.53;100340.35;107579;1247;61731;-72
2022/08/17 10:17:55;;;;;;;12.90;8.50;;;;;;;26.01;63.74;100338.92;107344;1250;75485;-72
2022/08/17 10:20:44;;;;;;;10.50;9.00;;;;;;;26.38;63.18;100336.61;107499;1247;72353;-73
2022/08/17 10:26:25;;;;;;;9.20;8.30;;;;;;;26.62;61.36;100335.07;107110;1251;63866;-74
2022/08/17 10:29:18;;;;;;;9.90;8.60;;;;;;;26.94;61.00;100330.37;107147;1249;59591;-73
2022/08/17 10:32:03;;;;;;;12.40;8.10;;;;;;;27.24;60.11;100328.16;107366;1250;59087;-72
2022/08/17 10:35:02;;;;;;;10.00;8.10;;;;;;;27.35;58.70;100322.83;107428;1247;63830;-73
2022/08/17 10:37:55;;;;;;;9.60;8.00;;;;;;;27.37;59.02;100314.87;107429;1248;61453;-74
2022/08/17 10:40:35;;;;;;;9.20;8.10;;;;;;;27.67;58.14;100323.42;107346;1247;69877;-73
2022/08/17 10:43:35;;;;;;;9.20;8.10;;;;;;;27.58;57.17;100321.17;107550;1248;63749;-71
2022/08/17 10:46:51;;;;;;;13.10;8.30;;;;;;;27.28;57.80;100314.60;107090;1250;60688;-73
2022/08/17 10:49:19;;;;;;;9.50;8.40;;;;;;;27.16;57.99;100317.79;107230;1250;60920;-73
2022/08/17 10:51:55;;;;;;;9.20;8.20;;;;;;;27.51;58.46;100316.41;107519;1247;75162;-72
2022/08/17 10:54:24;;;;;;;10.70;8.60;;;;;;;27.80;57.37;100312.84;107466;1247;62285;-75
2022/08/17 10:56:55;;;;;;;10.40;7.40;;;;;;;28.42;55.72;100314.55;107435;1247;70637;-72
2022/08/17 10:59:36;;;;;;;8.40;7.60;;;;;;;28.39;54.04;100310.45;107188;1251;64030;-73
2022/08/17 11:02:37;;;;;;;9.00;7.80;;;;;;;28.44;53.96;100312.08;107430;1247;61731;-75
2022/08/17 11:05:45;;;;;;;12.10;8.20;;;;;;;28.71;53.47;100305.19;107400;1247;59611;-73
2022/08/17 11:08:59;;;;;;;11.40;8.30;;;;;;;28.44;53.73;100305.51;107504;1247;74335;-73
2022/08/17 11:12:06;;;;;;;10.40;7.20;;;;;;;28.04;54.88;100302.46;107203;1250;61958;-72
2022/08/17 11:14:47;;;;;;;8.30;7.40;;;;;;;28.60;53.99;100304.88;107409;1248;70587;-72
2022/08/17 11:17:34;;;;;;;8.80;7.80;;;;;;;28.68;53.91;100299.47;107485;1247;73729;-72
2022/08/17 11:24:33;;;;;;;9.00;7.60;;;;;;;28.71;52.35;100298.80;107620;1247;59524;-73
2022/08/17 11:27:04;;;;;;;7.30;6.60;;;;;;;28.33;53.23;100302.48;107602;1247;75146;-72
2022/08/17 11:29:56;;;;;;;8.10;7.00;;;;;;;28.35;52.38;100295.09;105918;1248;2224102;-73
2022/08/17 11:32:41;;;;;;;9.10;6.80;;;;;;;28.43;52.42;100299.58;107455;1247;70952;-75
2022/08/17 11:35:20;;;;;;;8.00;6.80;;;;;;;28.79;51.81;100299.16;107451;1247;62916;-72
2022/08/17 11:38:01;;;;;;;8.50;6.70;;;;;;;29.07;50.73;100307.74;107494;1247;60522;-72
2022/08/17 11:40:37;;;;;;;10.90;7.10;;;;;;;28.68;51.58;100299.64;107495;1247;61152;-74
2022/08/17 11:43:42;;;;;;;9.10;7.70;;;;;;;28.43;53.14;100310.06;107402;1250;74198;-73
2022/08/17 11:53:05;;;;;;;8.10;7.20;;;;;;;27.26;57.50;100302.90;107562;1250;74898;-73
2022/08/17 11:55:34;;;;;;;8.00;6.70;;;;;;;27.85;55.39;100300.84;107487;1247;60145;-73
2022/08/17 11:58:43;;;;;;;8.80;6.90;;;;;;;28.35;54.14;100301.66;107651;1247;60843;-72
2022/08/17 12:01:21;;;;;;;10.40;6.80;;;;;;;28.72;52.85;100301.28;107260;1248;63558;-72
2022/08/17 12:03:56;;;;;;;9.40;7.00;;;;;;;29.21;51.32;100298.69;107627;1247;72193;-75
2022/08/17 12:06:49;;;;;;;8.70;7.00;;;;;;;29.59;50.92;100297.41;107662;1247;60671;-75
2022/08/17 12:11:00;;;;;;;10.10;7.00;;;;;;;30.05;50.27;100293.95;107622;1248;62351;-74
2022/08/17 12:19:49;;;;;;;6.60;5.90;;;;;;;31.75;45.40;100292.55;107592;1250;57987;-74
2022/08/17 12:27:32;;;;;;;6.80;5.50;;;;;;;31.03;45.49;100277.83;107652;1247;72250;-73
2022/08/17 12:30:31;;;;;;;9.50;6.10;;;;;;;31.57;45.12;100287.35;107605;1250;70469;-74
2022/08/17 12:33:00;;;;;;;6.60;5.80;;;;;;;31.29;44.88;100285.50;107426;1250;74360;-73
2022/08/17 12:35:35;;;;;;;11.20;6.30;;;;;;;30.61;45.98;100286.02;107535;1250;61858;-73
2022/08/17 12:55:39;;;;;;;7.30;5.00;;;;;;;31.24;43.73;100287.72;106490;1256;74021;-74
2022/08/17 12:58:13;;;;;;;7.10;5.00;;;;;;;30.97;44.49;100292.92;106861;1256;58046;-72
2022/08/17 13:01:15;;;;;;;5.90;5.30;;;;;;;30.70;44.88;100294.95;106750;1256;61157;-73
2022/08/17 13:14:10;;;;;;;5.00;4.50;;;;;;;31.69;40.58;100287.04;105662;1267;71579;-75
2022/08/17 13:16:38;;;;;;;4.80;3.80;;;;;;;32.14;39.88;100293.41;106243;1260;73853;-74
2022/08/17 13:19:13;;;;;;;4.40;3.50;;;;;;;32.50;39.07;100289.24;106252;1261;59751;-73
2022/08/17 13:22:01;;;;;;;4.50;3.90;;;;;;;32.83;38.20;100283.83;106586;1257;59486;-74
2022/08/17 13:24:51;;;;;;;4.60;3.90;;;;;;;32.99;37.32;100284.98;106492;1257;65387;-74
2022/08/17 13:27:24;;;;;;;5.00;4.00;;;;;;;32.87;36.96;100290.37;106883;1257;61057;-73
2022/08/17 13:29:58;;;;;;;5.70;3.80;;;;;;;32.98;36.95;100282.98;106763;1256;60082;-76
2022/08/17 13:32:46;;;;;;;5.20;4.00;;;;;;;32.36;37.86;100283.36;106733;1256;75854;-74
2022/08/17 13:35:43;;;;;;;6.10;4.00;;;;;;;32.05;39.07;100285.36;106719;1253;59655;-73
2022/08/17 13:38:48;;;;;;;;;;;;;;;32.62;39.22;100284.09;107349;1250;61617;-73
2022/08/17 13:41:36;;;;;;;4.40;4.00;;;;;;;32.71;38.98;100275.95;107561;1250;74513;-74